createdAt,value
2019-04-27T00:02:05.743Z,5.90
2019-04-27T00:04:35.736Z,6.40
2019-04-27T00:07:05.975Z,6.20
2019-04-27T00:09:50.124Z,6.33
2019-04-27T00:12:16.489Z,5.87
2019-04-27T00:14:48.305Z,5.63
2019-04-27T00:17:45.199Z,6.90
2019-04-27T00:20:15.402Z,5.83
2019-04-27T00:22:45.366Z,5.93
2019-04-27T00:25:13.611Z,5.63
2019-04-27T00:27:43.539Z,6.10
2019-04-27T00:30:13.862Z,5.50
2019-04-27T00:32:43.311Z,6.33
2019-04-27T00:35:14.626Z,6.40
2019-04-27T00:37:50.470Z,5.63
2019-04-27T00:40:23.565Z,5.10
2019-04-27T00:42:53.761Z,5.37
2019-04-27T00:45:23.426Z,5.40
2019-04-27T00:47:59.108Z,4.97
2019-04-27T00:50:23.452Z,5.37
2019-04-27T00:52:53.217Z,5.20
2019-04-27T00:55:23.422Z,5.53
2019-04-27T00:57:53.682Z,5.40
2019-04-27T01:00:26.468Z,5.50
2019-04-27T01:02:56.367Z,4.97
2019-04-27T01:05:26.266Z,4.47
2019-04-27T01:07:54.525Z,4.90
2019-04-27T01:10:23.404Z,5.10
2019-04-27T01:12:53.112Z,4.60
2019-04-27T01:15:23.794Z,3.67
2019-04-27T01:17:52.054Z,4.40
2019-04-27T01:20:20.328Z,4.03
2019-04-27T01:22:49.253Z,4.50
2019-04-27T01:25:18.881Z,4.73
2019-04-27T01:27:59.554Z,3.97
2019-04-27T01:30:32.356Z,3.87
2019-04-27T01:33:00.612Z,4.30
2019-04-27T01:35:28.929Z,4.40
2019-04-27T01:37:58.827Z,3.83
2019-04-27T01:40:27.201Z,4.20
2019-04-27T01:42:55.460Z,4.30
2019-04-27T01:45:23.736Z,3.83
2019-04-27T01:47:51.995Z,4.13
2019-04-27T01:50:20.240Z,3.80
2019-04-27T01:52:48.729Z,4.40
2019-04-27T01:55:18.748Z,4.77
2019-04-27T01:57:48.651Z,4.40
2019-04-27T02:00:52.473Z,5.07
2019-04-27T02:03:40.711Z,4.87
2019-04-27T02:06:09.240Z,4.93
2019-04-27T02:08:37.511Z,4.70
2019-04-27T02:11:05.763Z,5.63
2019-04-27T02:13:34.042Z,5.30
2019-04-27T02:16:02.312Z,5.63
2019-04-27T02:18:37.508Z,6.00
2019-04-27T02:21:01.065Z,5.97
2019-04-27T02:23:29.453Z,5.80
2019-04-27T02:25:58.606Z,5.43
2019-04-27T02:28:32.181Z,6.67
2019-04-27T02:31:20.311Z,6.87
2019-04-27T02:34:05.433Z,6.90
2019-04-27T02:36:33.691Z,6.20
2019-04-27T02:39:01.973Z,6.53
2019-04-27T02:41:30.232Z,7.23
2019-04-27T02:44:01.769Z,6.87
2019-04-27T02:46:31.514Z,7.10
2019-04-27T02:49:05.739Z,6.53
2019-04-27T02:51:49.529Z,6.97
2019-04-27T02:54:20.211Z,8.27
2019-04-27T02:56:50.031Z,7.13
2019-04-27T02:59:19.854Z,7.70
2019-04-27T03:01:53.539Z,7.37
2019-04-27T03:04:21.973Z,7.70
2019-04-27T03:06:50.233Z,7.20
2019-04-27T03:09:20.436Z,8.30
2019-04-27T03:11:49.992Z,8.33
2019-04-27T03:14:29.440Z,8.50
2019-04-27T03:16:51.817Z,8.27
2019-04-27T03:19:40.181Z,8.90
2019-04-27T03:22:12.491Z,8.80
2019-04-27T03:25:00.062Z,8.10
2019-04-27T03:27:30.452Z,8.07
2019-04-27T03:29:59.687Z,8.57
2019-04-27T03:32:31.225Z,9.00
2019-04-27T03:35:02.143Z,8.83
2019-04-27T03:37:30.305Z,9.77
2019-04-27T03:40:00.146Z,8.83
2019-04-27T03:42:29.321Z,9.23
2019-04-27T03:45:00.338Z,9.27
2019-04-27T03:47:30.333Z,8.60
2019-04-27T03:49:59.881Z,9.70
2019-04-27T03:52:29.919Z,8.63
2019-04-27T03:55:12.750Z,10.37
2019-04-27T03:57:45.118Z,9.60
2019-04-27T04:00:19.899Z,9.20
2019-04-27T04:02:50.184Z,9.97
2019-04-27T04:05:19.805Z,10.10
2019-04-27T04:07:50.323Z,8.93
2019-04-27T04:10:19.775Z,8.90
2019-04-27T04:13:01.404Z,10.00
2019-04-27T04:15:33.666Z,9.00
2019-04-27T04:18:01.948Z,10.70
2019-04-27T04:20:30.613Z,8.50
2019-04-27T04:23:02.798Z,8.60
2019-04-27T04:25:30.233Z,9.63
2019-04-27T04:28:00.580Z,9.10
2019-04-27T04:30:30.309Z,9.50
2019-04-27T04:32:59.896Z,9.53
2019-04-27T04:35:32.470Z,9.20
2019-04-27T04:38:00.167Z,8.70
2019-04-27T04:40:40.062Z,8.50
2019-04-27T04:43:13.227Z,7.23
2019-04-27T04:45:59.694Z,8.77
2019-04-27T04:48:30.232Z,8.80
2019-04-27T04:50:59.995Z,9.83
2019-04-27T04:53:29.292Z,8.80
2019-04-27T04:55:57.677Z,8.83
2019-04-27T04:58:26.016Z,7.00
2019-04-27T05:00:54.266Z,7.77
2019-04-27T05:03:22.523Z,7.57
2019-04-27T05:05:50.854Z,6.90
2019-04-27T05:08:19.242Z,7.80
2019-04-27T05:10:49.495Z,6.50
2019-04-27T05:13:19.179Z,6.23
2019-04-27T05:15:48.680Z,6.40
2019-04-27T05:18:18.968Z,7.20
2019-04-27T05:20:48.745Z,7.13
2019-04-27T05:23:18.510Z,6.83
2019-04-27T05:25:49.037Z,7.00
2019-04-27T05:28:18.718Z,6.27
2019-04-27T05:30:48.703Z,7.10
2019-04-27T05:33:18.739Z,5.80
2019-04-27T05:35:49.163Z,6.10
2019-04-27T05:38:19.117Z,6.47
2019-04-27T05:40:47.284Z,5.83
2019-04-27T05:43:17.198Z,5.40
2019-04-27T05:46:02.100Z,6.03
2019-04-27T05:48:31.993Z,6.03
2019-04-27T05:51:01.913Z,6.77
2019-04-27T05:53:30.387Z,6.10
2019-04-27T05:55:59.445Z,6.50
2019-04-27T05:58:28.952Z,5.90
2019-04-27T06:00:59.299Z,5.07
2019-04-27T06:03:29.452Z,5.40
2019-04-27T06:05:59.390Z,4.93
2019-04-27T06:08:29.468Z,5.00
2019-04-27T06:10:59.242Z,5.37
2019-04-27T06:13:30.770Z,4.70
2019-04-27T06:15:59.258Z,4.70
2019-04-27T06:18:29.435Z,3.87
2019-04-27T06:20:59.639Z,5.00
2019-04-27T06:23:28.955Z,4.90
2019-04-27T06:25:57.396Z,4.73
2019-04-27T06:28:25.630Z,4.07
2019-04-27T06:30:53.908Z,4.80
2019-04-27T06:33:32.331Z,4.23
2019-04-27T06:35:52.156Z,4.17
2019-04-27T06:38:20.428Z,3.00
2019-04-27T06:40:49.045Z,3.30
2019-04-27T06:43:18.883Z,3.27
2019-04-27T06:45:48.828Z,3.30
2019-04-27T06:48:17.152Z,3.43
2019-04-27T06:50:45.418Z,3.43
2019-04-27T06:53:13.684Z,3.33
2019-04-27T06:55:42.023Z,3.33
2019-04-27T06:58:10.288Z,2.47
2019-04-27T07:00:39.504Z,2.80
2019-04-27T07:03:09.008Z,3.07
2019-04-27T07:05:38.828Z,3.00
2019-04-27T07:08:08.893Z,3.47
2019-04-27T07:10:39.047Z,3.43
2019-04-27T07:13:07.475Z,3.67
2019-04-27T07:15:35.741Z,3.57
2019-04-27T07:18:03.992Z,3.73
2019-04-27T07:20:32.255Z,3.80
2019-04-27T07:23:00.509Z,3.60
2019-04-27T07:25:28.957Z,3.50
2019-04-27T07:27:58.953Z,3.53
2019-04-27T07:30:28.731Z,4.27
2019-04-27T07:32:58.884Z,3.80
2019-04-27T07:35:27.134Z,4.37
2019-04-27T07:37:55.399Z,4.20
2019-04-27T07:40:23.653Z,4.63
2019-04-27T07:42:53.559Z,4.70
2019-04-27T07:45:32.240Z,4.10
2019-04-27T07:48:00.491Z,4.10
2019-04-27T07:50:29.082Z,4.30
2019-04-27T07:52:58.705Z,3.40
2019-04-27T07:57:49.349Z,4.00
2019-04-27T08:00:19.411Z,3.67
2019-04-27T08:02:48.640Z,3.90
2019-04-27T08:05:16.898Z,3.40
2019-04-27T08:07:45.228Z,4.13
2019-04-27T08:10:13.560Z,3.53
2019-04-27T08:12:41.832Z,3.37
2019-04-27T08:15:10.153Z,3.23
2019-04-27T08:17:40.587Z,2.90
2019-04-27T08:20:09.253Z,3.60
2019-04-27T08:22:38.905Z,3.57
2019-04-27T08:25:09.276Z,3.47
2019-04-27T08:27:51.262Z,3.33
2019-04-27T08:30:23.706Z,3.40
2019-04-27T08:32:53.655Z,3.50
2019-04-27T08:35:21.946Z,4.00
2019-04-27T08:37:50.229Z,4.00
2019-04-27T08:40:19.275Z,4.23
2019-04-27T08:42:49.176Z,3.80
2019-04-27T08:45:19.283Z,4.20
2019-04-27T08:47:49.804Z,3.80
2019-04-27T08:50:19.053Z,4.17
2019-04-27T08:52:47.411Z,4.73
2019-04-27T08:55:15.727Z,4.20
2019-04-27T08:57:44.074Z,4.47
2019-04-27T09:00:13.198Z,4.73
2019-04-27T09:02:46.825Z,5.07
2019-04-27T09:05:11.547Z,4.77
2019-04-27T09:07:44.134Z,5.07
2019-04-27T09:10:19.797Z,6.10
2019-04-27T09:12:55.425Z,5.53
2019-04-27T09:15:25.337Z,5.87
2019-04-27T09:17:58.886Z,6.63
2019-04-27T09:20:39.031Z,6.40
2019-04-27T09:23:09.826Z,6.47
2019-04-27T09:25:39.647Z,6.23
2019-04-27T09:28:08.760Z,6.27
2019-04-27T09:30:38.772Z,5.87
2019-04-27T09:33:07.172Z,5.30
2019-04-27T09:35:35.675Z,6.17
2019-04-27T09:38:03.890Z,5.90
2019-04-27T09:40:32.451Z,6.00
2019-04-27T09:43:00.703Z,5.43
2019-04-27T09:45:29.043Z,5.43
2019-04-27T09:47:57.395Z,6.50
2019-04-27T09:50:28.174Z,4.90
2019-04-27T09:52:55.884Z,5.43
2019-04-27T09:55:26.136Z,5.03
2019-04-27T09:57:54.123Z,5.30
2019-04-27T10:00:22.468Z,4.53
2019-04-27T10:02:50.726Z,5.37
2019-04-27T10:05:19.468Z,4.73
2019-04-27T10:07:47.798Z,4.43
2019-04-27T10:10:16.387Z,4.77
2019-04-27T10:12:46.518Z,4.80
2019-04-27T10:15:16.256Z,5.00
2019-04-27T10:17:47.765Z,4.73
2019-04-27T10:20:16.858Z,4.23
2019-04-27T10:22:46.392Z,4.57
2019-04-27T10:25:28.300Z,4.70
2019-04-27T10:27:59.296Z,4.70
2019-04-27T10:30:28.186Z,4.80
2019-04-27T10:32:56.510Z,4.10
2019-04-27T10:35:26.032Z,4.37
2019-04-27T10:37:54.325Z,5.23
2019-04-27T10:40:22.644Z,4.83
2019-04-27T10:42:50.920Z,4.87
2019-04-27T10:45:19.189Z,4.87
2019-04-27T10:47:49.505Z,4.47
2019-04-27T10:50:17.605Z,4.83
2019-04-27T10:52:53.406Z,4.50
2019-04-27T10:55:16.135Z,4.80
2019-04-27T10:57:44.406Z,4.07
2019-04-27T11:00:16.728Z,5.20
2019-04-27T11:02:45.157Z,4.33
2019-04-27T11:05:31.229Z,4.60
2019-04-27T11:08:00.559Z,4.73
2019-04-27T11:10:28.920Z,4.47
2019-04-27T11:12:57.250Z,4.90
2019-04-27T11:15:26.375Z,5.27
2019-04-27T11:17:56.109Z,4.00
2019-04-27T11:20:27.467Z,3.97
2019-04-27T11:23:06.641Z,5.37
2019-04-27T11:25:26.265Z,4.20
2019-04-27T11:27:57.545Z,4.60
2019-04-27T11:30:24.844Z,4.93
2019-04-27T11:32:56.686Z,5.50
2019-04-27T11:35:25.764Z,5.30
2019-04-27T11:37:55.816Z,5.10
2019-04-27T11:40:24.827Z,5.40
2019-04-27T11:42:53.105Z,5.20
2019-04-27T11:45:21.443Z,5.47
2019-04-27T11:47:49.738Z,4.87
2019-04-27T11:50:18.672Z,5.33
2019-04-27T11:52:46.927Z,5.83
2019-04-27T11:55:16.112Z,6.37
2019-04-27T11:57:44.394Z,5.97
2019-04-27T12:00:16.651Z,5.60
2019-04-27T12:02:45.723Z,5.87
2019-04-27T12:05:16.111Z,5.80
2019-04-27T12:07:47.521Z,6.67
2019-04-27T12:10:15.739Z,6.90
2019-04-27T12:12:46.179Z,6.30
2019-04-27T12:15:16.055Z,7.67
2019-04-27T12:17:46.088Z,6.70
2019-04-27T12:20:15.942Z,7.37
2019-04-27T12:22:44.769Z,7.63
2019-04-27T12:25:13.675Z,8.10
2019-04-27T12:27:52.526Z,8.23
2019-04-27T12:30:28.535Z,8.27
2019-04-27T12:32:56.776Z,7.57
2019-04-27T12:35:25.698Z,6.13
2019-04-27T12:37:55.829Z,6.10
2019-04-27T12:40:24.415Z,7.00
2019-04-27T12:42:52.768Z,5.40
2019-04-27T12:45:21.093Z,5.20
2019-04-27T12:47:49.418Z,4.90
2019-04-27T12:50:17.953Z,3.77
2019-04-27T12:52:47.860Z,4.90
2019-04-27T12:55:32.855Z,3.80
2019-04-27T12:58:18.590Z,3.53
2019-04-27T13:00:51.337Z,3.30
2019-04-27T13:03:19.612Z,2.70
2019-04-27T13:05:47.909Z,2.50
2019-04-27T13:08:16.271Z,2.90
2019-04-27T13:10:44.537Z,2.80
2019-04-27T13:13:12.799Z,2.30
2019-04-27T13:15:41.047Z,2.03
2019-04-27T13:18:09.479Z,1.70
2019-04-27T13:20:37.746Z,2.30
2019-04-27T13:23:07.299Z,2.23
2019-04-27T13:25:36.976Z,2.50
2019-04-27T13:28:05.808Z,1.93
2019-04-27T13:30:35.832Z,2.00
2019-04-27T13:33:04.520Z,2.10
2019-04-27T13:35:34.084Z,2.07
2019-04-27T13:38:02.523Z,1.77
2019-04-27T13:40:32.484Z,2.13
2019-04-27T13:43:18.235Z,2.60
2019-04-27T13:46:08.071Z,2.60
2019-04-27T13:48:55.952Z,3.70
2019-04-27T13:51:31.344Z,4.17
2019-04-27T13:53:59.685Z,3.33
2019-04-27T13:56:27.943Z,3.03
2019-04-27T13:58:58.347Z,3.40
2019-04-27T14:01:26.223Z,3.03
2019-04-27T14:03:54.455Z,2.87
2019-04-27T14:06:22.832Z,3.20
2019-04-27T14:08:51.093Z,3.53
2019-04-27T14:11:19.411Z,3.87
2019-04-27T14:13:48.476Z,3.37
2019-04-27T14:16:18.599Z,2.60
2019-04-27T14:18:48.116Z,3.90
2019-04-27T14:21:16.591Z,3.90
2019-04-27T14:23:44.951Z,4.23
2019-04-27T14:26:13.232Z,3.80
2019-04-27T14:28:41.504Z,4.17
2019-04-27T14:31:09.892Z,4.13
2019-04-27T14:33:39.724Z,3.07
2019-04-27T14:36:08.353Z,4.10
2019-04-27T14:38:36.588Z,4.30
2019-04-27T14:41:04.913Z,4.03
2019-04-27T14:43:33.182Z,3.63
2019-04-27T14:46:01.452Z,3.90
2019-04-27T14:48:29.718Z,3.40
2019-04-27T14:50:59.039Z,4.37
2019-04-27T14:53:28.213Z,3.70
2019-04-27T14:55:58.472Z,3.43
2019-04-27T14:58:28.302Z,3.63
2019-04-27T15:00:58.552Z,3.70
2019-04-27T15:03:26.797Z,3.90
2019-04-27T15:05:55.284Z,3.50
2019-04-27T15:08:25.162Z,3.33
2019-04-27T15:10:54.017Z,3.37
2019-04-27T15:13:22.274Z,3.37
2019-04-27T15:15:50.563Z,3.27
2019-04-27T15:18:19.747Z,3.13
2019-04-27T15:20:48.197Z,2.90
2019-04-27T15:23:16.476Z,3.23
2019-04-27T15:25:46.962Z,2.80
2019-04-27T15:28:16.480Z,2.60
2019-04-27T15:30:55.458Z,2.80
2019-04-27T15:33:46.677Z,2.87
2019-04-27T15:36:20.983Z,2.77
2019-04-27T15:38:55.547Z,3.50
2019-04-27T15:41:37.227Z,2.83
2019-04-27T15:44:09.457Z,3.80
2019-04-27T15:46:38.987Z,3.63
2019-04-27T15:49:10.439Z,3.10
2019-04-27T15:51:38.232Z,2.90
2019-04-27T15:54:06.852Z,2.93
2019-04-27T15:56:35.541Z,3.83
2019-04-27T15:59:05.493Z,3.70
2019-04-27T16:01:35.781Z,4.30
2019-04-27T16:04:09.487Z,3.07
2019-04-27T16:06:34.274Z,3.13
2019-04-27T16:09:02.541Z,2.93
2019-04-27T16:11:30.817Z,3.60
2019-04-27T16:14:03.019Z,3.57
2019-04-27T16:16:33.369Z,2.80
2019-04-27T16:18:59.550Z,3.00
2019-04-27T16:21:31.537Z,3.83
2019-04-27T16:23:59.245Z,3.70
2019-04-27T16:26:28.509Z,2.90
2019-04-27T16:28:58.077Z,3.17
2019-04-27T16:31:31.398Z,3.20
2019-04-27T16:33:59.123Z,3.27
2019-04-27T16:36:26.454Z,3.77
2019-04-27T16:38:56.356Z,3.37
2019-04-27T16:41:24.633Z,3.10
2019-04-27T16:43:52.957Z,3.03
2019-04-27T16:46:21.527Z,3.40
2019-04-27T16:48:49.986Z,3.60
2019-04-27T16:51:18.504Z,3.07
2019-04-27T16:53:46.938Z,4.70
2019-04-27T16:56:18.277Z,2.27
2019-04-27T16:58:51.066Z,2.20
2019-04-27T17:01:23.000Z,2.50
2019-04-27T17:03:51.316Z,2.20
2019-04-27T17:06:21.372Z,2.20
2019-04-27T17:08:49.813Z,2.40
2019-04-27T17:11:19.508Z,2.77
2019-04-27T17:13:59.026Z,3.00
2019-04-27T17:16:33.995Z,2.70
2019-04-27T17:19:21.870Z,3.20
2019-04-27T17:21:50.141Z,2.67
2019-04-27T17:24:42.072Z,1.93
2019-04-27T17:27:05.133Z,2.60
2019-04-27T17:29:35.038Z,2.73
2019-04-27T17:32:03.656Z,2.70
2019-04-27T17:34:31.917Z,2.40
2019-04-27T17:37:00.221Z,2.70
2019-04-27T17:39:29.855Z,2.70
2019-04-27T17:41:58.541Z,4.20
2019-04-27T17:44:28.669Z,8.30
2019-04-27T17:46:57.147Z,3.37
2019-04-27T17:49:25.411Z,3.60
2019-04-27T17:51:53.706Z,4.00
2019-04-27T17:54:22.004Z,3.97
2019-04-27T17:56:52.387Z,4.30
2019-04-27T17:59:20.987Z,3.80
2019-04-27T18:01:49.803Z,3.40
2019-04-27T18:04:18.605Z,3.13
2019-04-27T18:06:48.410Z,3.77
2019-04-27T18:09:18.755Z,2.90
2019-04-27T18:11:49.958Z,2.63
2019-04-27T18:14:19.059Z,3.60
2019-04-27T18:16:48.231Z,3.17
2019-04-27T18:19:18.516Z,4.43
2019-04-27T18:22:00.505Z,4.87
2019-04-27T18:24:29.152Z,4.00
2019-04-27T18:27:02.974Z,4.27
2019-04-27T18:29:30.856Z,4.50
2019-04-27T18:31:59.106Z,4.00
2019-04-27T18:34:28.603Z,5.03
2019-04-27T18:36:57.137Z,5.30
2019-04-27T18:39:25.415Z,3.33
2019-04-27T18:41:54.405Z,3.80
2019-04-27T18:44:23.936Z,3.43
2019-04-27T18:46:53.771Z,3.73
2019-04-27T18:49:27.261Z,3.47
2019-04-27T18:52:11.009Z,4.03
2019-04-27T18:54:41.903Z,4.60
2019-04-27T18:57:10.927Z,4.20
2019-04-27T18:59:39.285Z,6.77
2019-04-27T19:02:08.450Z,4.40
2019-04-27T19:04:36.996Z,5.40
2019-04-27T19:07:05.275Z,4.90
2019-04-27T19:09:33.555Z,5.53
2019-04-27T19:12:01.846Z,5.40
2019-04-27T19:14:30.141Z,4.27
2019-04-27T19:16:58.863Z,3.47
2019-04-27T19:19:28.034Z,2.73
2019-04-27T19:21:56.363Z,2.20
2019-04-27T19:24:24.651Z,2.40
2019-04-27T19:26:54.545Z,1.83
2019-04-27T19:29:24.469Z,2.00
2019-04-27T19:32:00.386Z,1.80
2019-04-27T19:34:28.788Z,2.07
2019-04-27T19:36:59.079Z,1.70
2019-04-27T19:39:28.541Z,1.97
2019-04-27T19:42:01.450Z,2.23
2019-04-27T19:44:29.010Z,1.87
2019-04-27T19:46:57.543Z,2.23
2019-04-27T19:49:25.809Z,2.60
2019-04-27T19:51:54.109Z,2.20
2019-04-27T19:54:22.383Z,2.03
2019-04-27T19:56:50.662Z,2.50
2019-04-27T19:59:23.300Z,3.40
2019-04-27T20:01:53.312Z,2.80
2019-04-27T20:04:23.194Z,2.40
2019-04-27T20:06:51.452Z,2.67
2019-04-27T20:09:21.370Z,2.90
2019-04-27T20:11:49.646Z,2.30
2019-04-27T20:14:17.922Z,2.47
2019-04-27T20:16:46.203Z,2.57
2019-04-27T20:19:14.859Z,2.60
2019-04-27T20:21:43.146Z,2.90
2019-04-27T20:24:11.844Z,2.80
2019-04-27T20:26:40.264Z,2.50
2019-04-27T20:29:08.525Z,2.23
2019-04-27T20:31:36.774Z,2.97
2019-04-27T20:34:05.151Z,2.37
2019-04-27T20:36:33.423Z,2.50
2019-04-27T20:39:01.704Z,3.20
2019-04-27T20:41:31.831Z,2.53
2019-04-27T20:44:02.195Z,2.90
2019-04-27T20:46:31.193Z,2.63
2019-04-27T20:49:01.185Z,3.30
2019-04-27T20:51:50.267Z,2.93
2019-04-27T20:54:16.125Z,3.00
2019-04-27T20:56:44.462Z,3.50
2019-04-27T20:59:13.460Z,3.00
2019-04-27T21:01:41.743Z,3.20
2019-04-27T21:04:10.969Z,3.23
2019-04-27T21:06:43.574Z,3.37
2019-04-27T21:09:16.506Z,3.23
2019-04-27T21:11:48.648Z,4.07
2019-04-27T21:14:16.980Z,3.90
2019-04-27T21:16:45.316Z,4.10
2019-04-27T21:19:13.569Z,3.90
2019-04-27T21:21:42.741Z,3.37
2019-04-27T21:24:11.190Z,3.63
2019-04-27T21:26:39.449Z,4.10
2019-04-27T21:29:07.716Z,3.70
2019-04-27T21:31:35.975Z,3.47
2019-04-27T21:34:04.260Z,3.53
2019-04-27T21:36:32.519Z,4.17
2019-04-27T21:39:01.457Z,3.97
2019-04-27T21:41:31.175Z,4.60
2019-04-27T21:44:01.299Z,3.30
2019-04-27T21:46:31.651Z,3.60
2019-04-27T21:48:59.762Z,4.30
2019-04-27T21:51:28.032Z,4.70
2019-04-27T21:54:00.637Z,4.00
2019-04-27T21:56:28.917Z,4.73
2019-04-27T21:58:57.176Z,4.07
2019-04-27T22:01:27.859Z,5.50
2019-04-27T22:03:56.109Z,4.73
2019-04-27T22:06:24.524Z,4.73
2019-04-27T22:08:52.799Z,4.17
2019-04-27T22:11:21.899Z,4.40
2019-04-27T22:13:51.208Z,4.50
2019-04-27T22:16:21.286Z,4.77
2019-04-27T22:18:51.338Z,3.77
2019-04-27T22:21:21.457Z,5.63
2019-04-27T22:23:51.500Z,3.73
2019-04-27T22:26:21.347Z,4.93
2019-04-27T22:28:51.928Z,4.10
2019-04-27T22:31:21.165Z,4.87
2019-04-27T22:33:52.540Z,3.90
2019-04-27T22:36:21.207Z,4.33
2019-04-27T22:38:51.428Z,4.40
2019-04-27T22:41:21.469Z,4.07
2019-04-27T22:43:57.011Z,3.67
2019-04-27T22:46:33.083Z,3.27
2019-04-27T22:49:01.855Z,4.33
2019-04-27T22:51:30.329Z,4.07
2019-04-27T22:53:58.615Z,4.27
2019-04-27T22:56:26.891Z,3.70
2019-04-27T22:59:00.496Z,4.00
2019-04-27T23:01:28.434Z,3.67
2019-04-27T23:03:58.321Z,3.37
2019-04-27T23:06:26.596Z,3.67
2019-04-27T23:08:54.886Z,3.57
2019-04-27T23:11:23.127Z,3.10
2019-04-27T23:13:52.534Z,3.70
2019-04-27T23:16:22.465Z,4.23
2019-04-27T23:18:51.516Z,4.40
2019-04-27T23:21:20.893Z,3.50
2019-04-27T23:23:49.350Z,3.50
2019-04-27T23:26:17.619Z,2.83
2019-04-27T23:28:45.891Z,3.17
2019-04-27T23:31:24.396Z,3.60
2019-04-27T23:33:53.217Z,3.80
2019-04-27T23:36:21.684Z,3.50
2019-04-27T23:38:50.879Z,3.20
2019-04-27T23:41:19.409Z,3.67
2019-04-27T23:43:47.725Z,3.83
2019-04-27T23:46:16.074Z,3.20
2019-04-27T23:48:44.339Z,3.47
2019-04-27T23:51:29.329Z,3.40
2019-04-27T23:53:57.597Z,3.50
2019-04-27T23:56:25.869Z,3.60
2019-04-27T23:58:54.116Z,4.43
